createdAt,value
2022-10-13T00:01:24.566Z,8.87
2022-10-13T00:03:53.760Z,8.20
2022-10-13T00:06:22.228Z,9.38
2022-10-13T00:08:50.111Z,9.02
2022-10-13T00:11:18.295Z,8.73
2022-10-13T00:13:46.338Z,9.23
2022-10-13T00:16:15.168Z,10.35
2022-10-13T00:18:42.648Z,10.13
2022-10-13T00:21:12.248Z,10.48
2022-10-13T00:23:39.900Z,10.43
2022-10-13T00:26:08.968Z,11.00
2022-10-13T00:28:36.430Z,10.77
2022-10-13T00:31:03.967Z,11.55
2022-10-13T00:33:31.295Z,11.85
2022-10-13T00:35:58.651Z,11.88
2022-10-13T00:38:27.660Z,12.30
2022-10-13T00:40:56.134Z,11.63
2022-10-13T00:43:24.241Z,12.23
2022-10-13T00:45:51.838Z,13.10
2022-10-13T00:48:20.091Z,12.30
2022-10-13T00:50:47.859Z,12.57
2022-10-13T00:53:15.807Z,11.90
2022-10-13T00:55:45.707Z,11.82
2022-10-13T00:58:15.990Z,11.85
2022-10-13T01:00:44.265Z,11.98
2022-10-13T01:03:12.208Z,11.53
2022-10-13T01:05:39.983Z,11.60
2022-10-13T01:08:07.444Z,12.70
2022-10-13T01:10:37.160Z,12.60
2022-10-13T01:13:13.079Z,11.45
2022-10-13T01:15:42.953Z,12.13
2022-10-13T01:18:14.923Z,12.07
2022-10-13T01:21:03.019Z,12.07
2022-10-13T01:23:37.303Z,11.95
2022-10-13T01:26:18.636Z,11.95
2022-10-13T01:28:58.508Z,12.17
2022-10-13T01:31:28.902Z,12.65
2022-10-13T01:33:58.203Z,12.40
2022-10-13T01:36:28.367Z,11.95
2022-10-13T01:38:57.874Z,12.48
2022-10-13T01:41:28.155Z,13.53
2022-10-13T01:43:58.732Z,12.50
2022-10-13T01:46:28.827Z,13.00
2022-10-13T01:48:57.127Z,11.80
2022-10-13T01:51:26.107Z,13.45
2022-10-13T01:53:53.485Z,13.37
2022-10-13T01:56:21.048Z,13.10
2022-10-13T01:58:49.772Z,12.85
2022-10-13T02:01:22.811Z,13.25
2022-10-13T02:03:56.397Z,12.77
2022-10-13T02:06:25.746Z,12.63
2022-10-13T02:08:57.496Z,13.32
2022-10-13T02:11:25.033Z,13.27
2022-10-13T02:13:55.503Z,13.00
2022-10-13T02:16:23.886Z,13.23
2022-10-13T02:18:51.526Z,12.90
2022-10-13T02:21:20.567Z,12.73
2022-10-13T02:23:47.906Z,13.10
2022-10-13T02:26:15.415Z,13.05
2022-10-13T02:28:42.999Z,12.80
2022-10-13T02:31:10.480Z,13.03
2022-10-13T02:33:38.178Z,12.80
2022-10-13T02:36:06.108Z,14.45
2022-10-13T02:38:34.810Z,12.90
2022-10-13T02:41:02.783Z,14.25
2022-10-13T02:43:30.475Z,14.83
2022-10-13T02:45:57.805Z,14.55
2022-10-13T02:48:25.165Z,14.50
2022-10-13T02:50:52.512Z,14.85
2022-10-13T02:53:19.868Z,14.48
2022-10-13T02:55:48.781Z,14.20
2022-10-13T02:58:16.142Z,13.95
2022-10-13T03:00:43.625Z,13.25
2022-10-13T03:03:12.635Z,12.18
2022-10-13T03:05:40.243Z,12.63
2022-10-13T03:08:07.856Z,12.97
2022-10-13T03:10:35.171Z,12.85
2022-10-13T03:13:04.031Z,12.27
2022-10-13T03:15:31.366Z,12.38
2022-10-13T03:17:58.687Z,13.15
2022-10-13T03:20:26.071Z,13.07
2022-10-13T03:22:53.491Z,12.50
2022-10-13T03:25:20.863Z,12.13
2022-10-13T03:27:48.275Z,12.13
2022-10-13T03:30:17.048Z,13.02
2022-10-13T03:32:44.439Z,12.70
2022-10-13T03:35:11.802Z,13.27
2022-10-13T03:37:39.253Z,12.45
2022-10-13T03:40:07.185Z,13.43
2022-10-13T03:42:36.144Z,12.70
2022-10-13T03:45:04.282Z,12.30
2022-10-13T03:47:32.947Z,12.98
2022-10-13T03:50:00.318Z,13.57
2022-10-13T03:52:27.641Z,14.00
2022-10-13T03:54:55.141Z,14.00
2022-10-13T03:57:22.479Z,13.03
2022-10-13T03:59:49.795Z,13.60
2022-10-13T04:02:17.333Z,13.82
2022-10-13T04:04:46.188Z,13.35
2022-10-13T04:07:13.544Z,13.23
2022-10-13T04:09:40.895Z,14.33
2022-10-13T04:12:08.502Z,14.65
2022-10-13T04:14:35.944Z,13.52
2022-10-13T04:17:03.346Z,13.60
2022-10-13T04:19:30.708Z,13.25
2022-10-13T04:21:59.400Z,13.93
2022-10-13T04:24:27.127Z,13.65
2022-10-13T04:26:54.563Z,13.20
2022-10-13T04:29:21.899Z,12.63
2022-10-13T04:31:49.250Z,12.75
2022-10-13T04:34:16.592Z,12.90
2022-10-13T04:36:43.913Z,12.73
2022-10-13T04:39:12.602Z,12.65
2022-10-13T04:41:39.937Z,12.45
2022-10-13T04:44:07.261Z,12.15
2022-10-13T04:46:34.629Z,12.30
2022-10-13T04:49:02.522Z,12.50
2022-10-13T04:51:29.919Z,12.30
2022-10-13T04:53:57.987Z,13.13
2022-10-13T04:56:27.004Z,11.98
2022-10-13T04:58:54.347Z,11.83
2022-10-13T05:01:22.711Z,11.93
2022-10-13T05:03:51.495Z,12.43
2022-10-13T05:06:19.975Z,11.88
2022-10-13T05:08:47.334Z,12.13
2022-10-13T05:11:14.697Z,12.00
2022-10-13T05:13:43.497Z,12.25
2022-10-13T05:16:11.467Z,12.35
2022-10-13T05:18:38.799Z,11.68
2022-10-13T05:21:09.505Z,12.02
2022-10-13T05:23:37.063Z,11.67
2022-10-13T05:26:05.383Z,12.02
2022-10-13T05:28:33.069Z,11.95
2022-10-13T05:31:10.622Z,11.52
2022-10-13T05:33:38.491Z,11.40
2022-10-13T05:36:06.855Z,11.50
2022-10-13T05:38:34.544Z,11.60
2022-10-13T05:41:05.573Z,12.32
2022-10-13T05:43:33.082Z,11.57
2022-10-13T05:46:00.691Z,11.70
2022-10-13T05:48:29.778Z,11.97
2022-10-13T05:50:58.639Z,11.20
2022-10-13T05:53:26.860Z,11.60
2022-10-13T05:55:55.751Z,12.07
2022-10-13T05:58:23.328Z,12.45
2022-10-13T06:00:50.822Z,11.67
2022-10-13T06:03:20.276Z,11.68
2022-10-13T06:05:49.146Z,11.25
2022-10-13T06:08:16.684Z,11.20
2022-10-13T06:10:44.418Z,11.75
2022-10-13T06:13:11.936Z,11.23
2022-10-13T06:15:39.291Z,11.57
2022-10-13T06:18:08.450Z,12.10
2022-10-13T06:20:35.897Z,11.85
2022-10-13T06:23:04.605Z,12.90
2022-10-13T06:25:32.072Z,11.17
2022-10-13T06:28:00.427Z,12.48
2022-10-13T06:30:28.078Z,12.48
2022-10-13T06:32:55.944Z,11.57
2022-10-13T06:35:23.371Z,12.52
2022-10-13T06:37:50.743Z,11.20
2022-10-13T06:40:19.532Z,11.25
2022-10-13T06:42:50.312Z,11.32
2022-10-13T06:45:17.892Z,11.07
2022-10-13T06:47:45.206Z,11.48
2022-10-13T06:50:12.918Z,10.80
2022-10-13T06:52:40.330Z,11.85
2022-10-13T06:55:07.924Z,10.35
2022-10-13T06:57:36.637Z,10.70
2022-10-13T07:00:05.133Z,10.23
2022-10-13T07:02:59.812Z,10.77
2022-10-13T07:05:27.172Z,10.15
2022-10-13T07:07:54.761Z,10.40
2022-10-13T07:10:22.312Z,9.85
2022-10-13T07:12:51.073Z,10.32
2022-10-13T07:15:18.452Z,9.97
2022-10-13T07:17:45.813Z,10.02
2022-10-13T07:20:13.194Z,9.32
2022-10-13T07:22:40.535Z,9.82
2022-10-13T07:25:08.529Z,10.07
2022-10-13T07:27:38.138Z,10.17
2022-10-13T07:30:07.955Z,9.38
2022-10-13T07:32:35.753Z,10.07
2022-10-13T07:35:03.176Z,9.52
2022-10-13T07:37:30.508Z,9.40
2022-10-13T07:40:00.492Z,9.40
2022-10-13T07:42:27.991Z,9.75
2022-10-13T07:44:55.326Z,8.52
2022-10-13T07:47:24.071Z,9.23
2022-10-13T07:49:51.428Z,8.70
2022-10-13T07:52:19.118Z,8.23
2022-10-13T07:54:46.635Z,8.32
2022-10-13T07:57:15.148Z,8.07
2022-10-13T07:59:42.624Z,8.48
2022-10-13T08:02:09.985Z,8.15
2022-10-13T08:04:39.011Z,8.03
2022-10-13T08:07:06.708Z,7.78
2022-10-13T08:09:34.077Z,8.18
2022-10-13T08:12:02.071Z,8.23
2022-10-13T08:14:29.856Z,7.70
2022-10-13T08:16:57.384Z,7.50
2022-10-13T08:19:26.388Z,7.43
2022-10-13T08:21:59.731Z,8.05
2022-10-13T08:24:28.006Z,7.65
2022-10-13T08:26:55.383Z,7.55
2022-10-13T08:29:24.188Z,7.87
2022-10-13T08:31:52.447Z,8.07
2022-10-13T08:34:20.239Z,7.72
2022-10-13T08:36:47.624Z,7.22
2022-10-13T08:39:16.289Z,7.43
2022-10-13T08:41:44.830Z,7.53
2022-10-13T08:47:07.947Z,7.15
2022-10-13T08:49:36.365Z,7.75
2022-10-13T08:52:04.335Z,6.80
2022-10-13T08:54:33.812Z,7.07
2022-10-13T08:59:33.603Z,7.22
2022-10-13T09:02:01.845Z,7.05
2022-10-13T09:04:30.784Z,7.78
2022-10-13T09:07:02.894Z,7.43
2022-10-13T09:09:30.235Z,7.32
2022-10-13T09:11:59.203Z,7.65
2022-10-13T09:14:28.115Z,8.25
2022-10-13T09:16:56.520Z,8.27
2022-10-13T09:19:25.766Z,8.40
2022-10-13T09:21:54.774Z,8.18
2022-10-13T09:24:23.184Z,9.30
2022-10-13T09:26:52.465Z,8.98
2022-10-13T09:29:25.063Z,9.77
2022-10-13T09:31:53.029Z,9.53
2022-10-13T09:34:25.050Z,9.93
2022-10-13T09:36:59.420Z,10.05
2022-10-13T09:39:27.471Z,10.10
2022-10-13T09:42:09.821Z,9.77
2022-10-13T09:44:38.553Z,10.17
2022-10-13T09:47:06.012Z,10.82
2022-10-13T09:49:35.919Z,10.23
2022-10-13T09:52:04.303Z,10.40
2022-10-13T09:54:38.424Z,10.70
2022-10-13T09:57:08.511Z,10.83
2022-10-13T09:59:37.639Z,10.43
2022-10-13T10:02:19.492Z,10.50
2022-10-13T10:04:49.554Z,10.77
2022-10-13T10:07:20.634Z,10.43
2022-10-13T10:09:50.061Z,10.97
2022-10-13T10:12:20.295Z,10.85
2022-10-13T10:14:50.346Z,10.85
2022-10-13T10:17:22.412Z,10.32
2022-10-13T10:19:54.283Z,10.18
2022-10-13T10:22:26.179Z,11.13
2022-10-13T10:24:56.306Z,10.82
2022-10-13T10:27:27.421Z,10.68
2022-10-13T10:29:58.320Z,10.75
2022-10-13T10:32:32.711Z,10.48
2022-10-13T10:35:03.111Z,10.50
2022-10-13T10:37:39.316Z,10.65
2022-10-13T10:40:13.757Z,10.05
2022-10-13T10:42:52.103Z,10.30
2022-10-13T10:45:21.421Z,10.60
2022-10-13T10:47:52.304Z,9.80
2022-10-13T10:50:20.795Z,10.98
2022-10-13T10:52:51.288Z,10.02
2022-10-13T10:55:20.949Z,11.20
2022-10-13T10:57:54.033Z,11.02
2022-10-13T11:00:22.332Z,10.40
2022-10-13T11:02:56.647Z,11.25
2022-10-13T11:05:24.103Z,11.23
2022-10-13T11:07:59.006Z,11.63
2022-10-13T11:10:27.254Z,11.13
2022-10-13T11:13:12.308Z,10.87
2022-10-13T11:15:43.679Z,11.25
2022-10-13T11:18:29.723Z,10.80
2022-10-13T11:21:01.574Z,10.95
2022-10-13T11:23:32.635Z,11.30
2022-10-13T11:26:18.482Z,11.00
2022-10-13T11:28:46.338Z,11.20
2022-10-13T11:31:33.708Z,9.82
2022-10-13T11:34:03.434Z,9.98
2022-10-13T11:36:43.872Z,10.30
2022-10-13T11:39:27.848Z,9.77
2022-10-13T11:41:58.133Z,9.65
2022-10-13T11:44:29.718Z,9.57
2022-10-13T11:47:01.146Z,9.60
2022-10-13T11:49:38.144Z,9.88
2022-10-13T11:52:13.302Z,9.93
2022-10-13T11:54:42.471Z,10.70
2022-10-13T11:57:18.969Z,10.38
2022-10-13T11:59:47.398Z,10.85
2022-10-13T12:02:18.893Z,10.63
2022-10-13T12:04:59.772Z,11.00
2022-10-13T12:07:30.506Z,10.32
2022-10-13T12:09:58.635Z,10.88
2022-10-13T12:12:26.281Z,11.18
2022-10-13T12:14:54.810Z,11.00
2022-10-13T12:17:24.134Z,10.50
2022-10-13T12:19:53.217Z,10.70
2022-10-13T12:22:21.084Z,11.35
2022-10-13T12:24:59.440Z,11.35
2022-10-13T12:27:27.406Z,11.57
2022-10-13T12:29:54.944Z,12.20
2022-10-13T12:32:22.947Z,12.32
2022-10-13T12:34:50.377Z,11.80
2022-10-13T12:37:22.496Z,12.52
2022-10-13T12:39:50.585Z,11.45
2022-10-13T12:42:19.465Z,11.70
2022-10-13T12:44:47.293Z,12.00
2022-10-13T12:47:29.537Z,11.60
2022-10-13T12:50:11.796Z,11.82
2022-10-13T12:52:39.267Z,11.48
2022-10-13T12:55:13.447Z,12.13
2022-10-13T12:57:42.386Z,12.70
2022-10-13T13:00:22.008Z,9.88
2022-10-13T13:02:52.058Z,6.18
2022-10-13T13:05:32.558Z,5.43
2022-10-13T13:08:00.462Z,4.53
2022-10-13T13:10:28.276Z,4.72
2022-10-13T13:12:57.068Z,5.07
2022-10-13T13:15:32.725Z,4.30
2022-10-13T13:18:14.947Z,2.75
2022-10-13T13:20:42.363Z,2.97
2022-10-13T13:23:09.700Z,2.60
2022-10-13T13:25:37.407Z,2.20
2022-10-13T13:28:11.089Z,1.70
2022-10-13T13:30:38.457Z,2.03
2022-10-13T13:33:05.879Z,1.80
2022-10-13T13:35:33.644Z,2.10
2022-10-13T13:38:01.146Z,2.25
2022-10-13T13:40:28.914Z,2.33
2022-10-13T13:42:56.298Z,2.75
2022-10-13T13:45:25.358Z,2.70
2022-10-13T13:47:54.932Z,2.35
2022-10-13T13:50:26.266Z,2.10
2022-10-13T13:52:53.593Z,1.80
2022-10-13T13:55:21.012Z,1.90
2022-10-13T13:57:48.342Z,1.60
2022-10-13T14:00:16.475Z,1.30
2022-10-13T14:02:45.964Z,1.50
2022-10-13T14:05:13.551Z,1.60
2022-10-13T14:07:41.064Z,1.40
2022-10-13T14:10:09.486Z,1.33
2022-10-13T14:12:37.010Z,1.40
2022-10-13T14:15:04.562Z,1.33
2022-10-13T14:17:32.406Z,1.50
2022-10-13T14:20:01.146Z,1.20
2022-10-13T14:22:28.504Z,1.70
2022-10-13T14:24:55.864Z,1.50
2022-10-13T14:27:23.209Z,1.73
2022-10-13T14:29:50.557Z,1.50
2022-10-13T14:32:18.313Z,1.55
2022-10-13T14:34:45.895Z,1.57
2022-10-13T14:37:14.676Z,1.67
2022-10-13T14:39:42.000Z,1.50
2022-10-13T14:42:09.360Z,1.60
2022-10-13T14:44:36.928Z,1.30
2022-10-13T14:47:04.287Z,1.60
2022-10-13T14:49:31.891Z,1.80
2022-10-13T14:51:59.256Z,1.80
2022-10-13T14:54:28.042Z,1.90
2022-10-13T14:56:55.413Z,1.60
2022-10-13T14:59:22.748Z,1.67
2022-10-13T15:01:50.471Z,1.48
2022-10-13T15:04:17.798Z,1.85
2022-10-13T15:06:45.164Z,1.50
2022-10-13T15:09:12.893Z,1.73
2022-10-13T15:11:41.614Z,1.57
2022-10-13T15:14:09.752Z,1.42
2022-10-13T15:16:37.863Z,1.58
2022-10-13T15:19:05.331Z,1.48
2022-10-13T15:21:32.657Z,1.50
2022-10-13T15:24:01.332Z,1.50
2022-10-13T15:26:28.684Z,1.70
2022-10-13T15:28:57.418Z,1.45
2022-10-13T15:31:24.826Z,1.70
2022-10-13T15:33:53.063Z,1.77
2022-10-13T15:36:21.056Z,1.80
2022-10-13T15:38:48.455Z,1.90
2022-10-13T15:41:16.011Z,1.58
2022-10-13T15:43:43.715Z,1.70
2022-10-13T15:46:20.765Z,1.80
2022-10-13T15:48:48.248Z,1.67
2022-10-13T15:51:16.443Z,1.73
2022-10-13T15:53:43.833Z,1.73
2022-10-13T15:56:11.240Z,1.67
2022-10-13T15:58:38.791Z,1.60
2022-10-13T16:01:08.037Z,1.50
2022-10-13T16:03:36.893Z,1.55
2022-10-13T16:06:04.816Z,1.63
2022-10-13T16:08:32.240Z,1.52
2022-10-13T16:10:59.573Z,2.00
2022-10-13T16:13:26.929Z,1.60
2022-10-13T16:15:57.888Z,1.67
2022-10-13T16:18:28.898Z,1.55
2022-10-13T16:20:57.613Z,1.73
2022-10-13T16:23:25.002Z,1.80
2022-10-13T16:25:52.438Z,2.00
2022-10-13T16:28:19.847Z,1.95
2022-10-13T16:30:47.434Z,1.90
2022-10-13T16:33:14.766Z,1.80
2022-10-13T16:35:42.132Z,1.85
2022-10-13T16:38:11.430Z,1.90
2022-10-13T16:40:38.935Z,1.92
2022-10-13T16:43:06.456Z,1.80
2022-10-13T16:45:55.202Z,2.10
2022-10-13T16:48:21.451Z,2.25
2022-10-13T16:50:48.794Z,2.13
2022-10-13T16:53:17.863Z,2.47
2022-10-13T16:55:45.527Z,2.38
2022-10-13T16:58:13.244Z,2.08
2022-10-13T17:00:40.801Z,2.35
2022-10-13T17:03:08.298Z,2.00
2022-10-13T17:05:35.677Z,2.58
2022-10-13T17:08:03.028Z,2.85
2022-10-13T17:10:31.702Z,2.58
2022-10-13T17:12:59.177Z,2.33
2022-10-13T17:15:26.616Z,2.30
2022-10-13T17:17:54.359Z,2.30
2022-10-13T17:20:21.708Z,2.25
2022-10-13T17:22:49.328Z,2.45
2022-10-13T17:25:17.042Z,2.50
2022-10-13T17:27:45.790Z,2.40
2022-10-13T17:30:13.167Z,2.38
2022-10-13T17:32:40.506Z,2.58
2022-10-13T17:35:10.744Z,2.90
2022-10-13T17:37:38.133Z,2.40
2022-10-13T17:40:05.913Z,2.60
2022-10-13T17:42:34.168Z,2.60
2022-10-13T17:45:02.961Z,2.83
2022-10-13T17:47:30.303Z,2.60
2022-10-13T17:49:57.664Z,2.80
2022-10-13T17:52:25.670Z,2.70
2022-10-13T17:54:53.245Z,2.45
2022-10-13T17:57:21.188Z,2.40
2022-10-13T17:59:48.705Z,2.65
2022-10-13T18:02:18.844Z,2.53
2022-10-13T18:04:46.329Z,2.57
2022-10-13T18:07:13.671Z,2.47
2022-10-13T18:09:41.135Z,2.33
2022-10-13T18:12:08.724Z,2.67
2022-10-13T18:14:36.132Z,2.55
2022-10-13T18:17:03.456Z,2.30
2022-10-13T18:19:35.412Z,2.80
2022-10-13T18:22:05.260Z,2.65
2022-10-13T18:24:32.620Z,2.50
2022-10-13T18:26:59.962Z,2.30
2022-10-13T18:29:27.346Z,2.47
2022-10-13T18:31:56.118Z,2.80
2022-10-13T18:34:23.627Z,2.58
2022-10-13T18:36:54.931Z,2.90
2022-10-13T18:39:24.672Z,2.85
2022-10-13T18:41:52.719Z,3.33
2022-10-13T18:44:20.912Z,3.42
2022-10-13T18:46:49.812Z,3.22
2022-10-13T18:49:18.954Z,3.17
2022-10-13T18:51:46.616Z,3.97
2022-10-13T18:54:15.293Z,3.77
2022-10-13T18:56:42.639Z,3.97
2022-10-13T18:59:11.547Z,4.38
2022-10-13T19:01:40.716Z,4.03
2022-10-13T19:04:08.572Z,3.78
2022-10-13T19:06:35.928Z,3.27
2022-10-13T19:09:04.537Z,3.08
2022-10-13T19:11:33.698Z,3.50
2022-10-13T19:14:01.533Z,4.22
2022-10-13T19:16:29.886Z,4.28
2022-10-13T19:18:57.348Z,3.97
2022-10-13T19:21:24.734Z,4.43
2022-10-13T19:23:52.292Z,4.35
2022-10-13T19:26:20.908Z,5.32
2022-10-13T19:28:50.332Z,4.80
2022-10-13T19:31:18.927Z,4.53
2022-10-13T19:33:47.144Z,5.43
2022-10-13T19:36:22.077Z,5.10
2022-10-13T19:38:49.763Z,5.20
2022-10-13T19:41:17.327Z,5.10
2022-10-13T19:43:44.739Z,4.87
2022-10-13T19:46:13.504Z,4.90
2022-10-13T19:48:40.995Z,4.57
2022-10-13T19:51:09.125Z,4.72
2022-10-13T19:53:36.864Z,4.72
2022-10-13T19:56:04.377Z,4.40
2022-10-13T19:58:31.814Z,3.97
2022-10-13T20:01:02.516Z,4.60
2022-10-13T20:03:31.395Z,4.78
2022-10-13T20:05:58.758Z,4.18
2022-10-13T20:08:26.509Z,4.50
2022-10-13T20:10:53.875Z,4.53
2022-10-13T20:13:21.551Z,4.32
2022-10-13T20:15:48.933Z,4.55
2022-10-13T20:18:16.284Z,4.68
2022-10-13T20:20:44.993Z,4.60
2022-10-13T20:23:12.884Z,4.93
2022-10-13T20:25:40.277Z,4.65
2022-10-13T20:28:07.612Z,4.28
2022-10-13T20:30:34.995Z,4.93
2022-10-13T20:33:02.858Z,5.13
2022-10-13T20:35:30.558Z,4.90
2022-10-13T20:37:59.255Z,5.10
2022-10-13T20:40:26.672Z,4.97
2022-10-13T20:42:54.183Z,4.30
2022-10-13T20:45:22.591Z,4.93
2022-10-13T20:47:50.058Z,4.60
2022-10-13T20:50:17.510Z,4.70
2022-10-13T20:52:44.874Z,5.05
2022-10-13T20:55:13.591Z,4.72
2022-10-13T20:57:40.926Z,5.13
2022-10-13T21:00:08.910Z,5.18
2022-10-13T21:02:36.583Z,5.22
2022-10-13T21:05:04.007Z,5.95
2022-10-13T21:07:31.339Z,6.38
2022-10-13T21:09:58.709Z,5.70
2022-10-13T21:12:27.395Z,5.88
2022-10-13T21:14:54.734Z,6.53
2022-10-13T21:17:22.793Z,6.22
2022-10-13T21:19:50.432Z,6.68
2022-10-13T21:22:17.816Z,6.77
2022-10-13T21:24:45.152Z,6.63
2022-10-13T21:27:12.562Z,7.28
2022-10-13T21:29:41.272Z,7.05
2022-10-13T21:32:08.645Z,7.43
2022-10-13T21:34:36.318Z,7.27
2022-10-13T21:37:03.650Z,7.90
2022-10-13T21:39:31.364Z,7.57
2022-10-13T21:41:59.077Z,7.60
2022-10-13T21:44:27.461Z,7.70
2022-10-13T21:46:56.167Z,8.13
2022-10-13T21:49:23.490Z,8.57
2022-10-13T21:51:50.844Z,8.15
2022-10-13T21:54:18.197Z,8.65
2022-10-13T21:56:45.550Z,8.48
2022-10-13T21:59:13.440Z,8.77
2022-10-13T22:01:41.111Z,8.32
2022-10-13T22:04:10.554Z,8.25
2022-10-13T22:06:37.935Z,8.38
2022-10-13T22:09:05.859Z,8.45
2022-10-13T22:11:34.718Z,8.30
2022-10-13T22:14:02.080Z,8.73
2022-10-13T22:16:34.487Z,8.32
2022-10-13T22:19:02.124Z,8.43
2022-10-13T22:21:31.664Z,8.88
2022-10-13T22:23:59.684Z,8.50
2022-10-13T22:26:27.630Z,8.90
2022-10-13T22:28:55.116Z,8.82
2022-10-13T22:31:22.532Z,8.55
2022-10-13T22:33:53.369Z,9.02
2022-10-13T22:36:21.633Z,8.50
2022-10-13T22:38:51.003Z,8.75
2022-10-13T22:41:19.675Z,8.13
2022-10-13T22:43:49.844Z,8.32
2022-10-13T22:46:18.918Z,8.48
2022-10-13T22:48:46.334Z,9.23
2022-10-13T22:51:15.137Z,9.20
2022-10-13T22:53:42.583Z,8.75
2022-10-13T22:56:13.406Z,9.32
2022-10-13T22:58:41.072Z,9.80
2022-10-13T23:01:09.072Z,9.37
2022-10-13T23:03:36.449Z,8.95
2022-10-13T23:06:04.040Z,8.93
2022-10-13T23:08:31.679Z,9.70
2022-10-13T23:10:59.021Z,9.25
2022-10-13T23:13:27.819Z,10.20
2022-10-13T23:15:55.190Z,10.45
2022-10-13T23:18:22.516Z,9.77
2022-10-13T23:20:53.144Z,10.23
2022-10-13T23:23:23.936Z,9.45
2022-10-13T23:25:51.285Z,9.73
2022-10-13T23:28:18.711Z,10.50
2022-10-13T23:30:47.413Z,10.10
2022-10-13T23:33:14.742Z,10.00
2022-10-13T23:35:42.390Z,9.73
2022-10-13T23:38:10.063Z,9.73
2022-10-13T23:40:37.408Z,9.82
2022-10-13T23:43:04.723Z,10.02
2022-10-13T23:45:32.427Z,10.45
2022-10-13T23:48:01.105Z,10.23
2022-10-13T23:50:28.439Z,9.67
2022-10-13T23:52:56.227Z,10.50
2022-10-13T23:55:23.561Z,10.10
2022-10-13T23:57:50.969Z,10.23
